createdAt,value
2018-07-21T00:00:15.938Z,0
2018-07-21T00:00:56.367Z,0
2018-07-21T00:01:36.862Z,0
2018-07-21T00:02:17.219Z,0
2018-07-21T00:02:57.612Z,0
2018-07-21T00:03:37.969Z,0
2018-07-21T00:04:18.418Z,0
2018-07-21T00:04:58.806Z,0
2018-07-21T00:05:39.242Z,0
2018-07-21T00:06:19.576Z,0
2018-07-21T00:06:59.952Z,0
2018-07-21T00:07:40.401Z,0
2018-07-21T00:08:20.774Z,0
2018-07-21T00:10:33.462Z,0
2018-07-21T00:11:13.850Z,0
2018-07-21T00:11:54.275Z,0
2018-07-21T00:12:34.689Z,0
2018-07-21T00:13:15.122Z,0
2018-07-21T00:13:55.495Z,0
2018-07-21T00:14:35.914Z,0
2018-07-21T00:15:16.298Z,0
2018-07-21T00:15:56.743Z,0
2018-07-21T00:16:37.185Z,0
2018-07-21T00:17:17.599Z,0
2018-07-21T00:17:57.888Z,0
2018-07-21T00:18:38.282Z,0
2018-07-21T00:19:18.694Z,0
2018-07-21T00:19:59.121Z,0
2018-07-21T00:20:39.496Z,0
2018-07-21T00:21:19.939Z,0
2018-07-21T00:22:00.284Z,0
2018-07-21T00:22:40.672Z,0
2018-07-21T00:23:21.113Z,0
2018-07-21T00:25:41.403Z,0
2018-07-21T00:26:21.663Z,0
2018-07-21T00:27:02.122Z,0
2018-07-21T00:27:42.497Z,0
2018-07-21T00:28:22.878Z,0
2018-07-21T00:29:03.352Z,0
2018-07-21T00:29:43.836Z,0
2018-07-21T00:30:24.275Z,0
2018-07-21T00:31:04.625Z,0
2018-07-21T00:31:45.024Z,0
2018-07-21T00:32:25.506Z,0
2018-07-21T00:33:05.868Z,0
2018-07-21T00:33:46.330Z,0
2018-07-21T00:34:26.704Z,0
2018-07-21T00:35:07.165Z,0
2018-07-21T00:35:47.590Z,0
2018-07-21T00:36:28.002Z,0
2018-07-21T00:37:08.335Z,0
2018-07-21T00:37:48.756Z,0
2018-07-21T00:38:29.141Z,0
2018-07-21T00:39:09.562Z,0
2018-07-21T00:39:49.967Z,0
2018-07-21T00:40:30.401Z,0
2018-07-21T00:41:10.795Z,0
2018-07-21T00:41:51.191Z,0
2018-07-21T00:42:31.596Z,0
2018-07-21T00:43:11.996Z,0
2018-07-21T00:43:52.386Z,0
2018-07-21T00:44:32.816Z,0
2018-07-21T00:45:13.231Z,0
2018-07-21T00:45:53.679Z,0
2018-07-21T00:46:34.135Z,0
2018-07-21T00:47:14.679Z,0
2018-07-21T00:47:55.013Z,0
2018-07-21T00:48:35.408Z,0
2018-07-21T00:49:15.854Z,0
2018-07-21T00:49:56.264Z,0
2018-07-21T00:50:36.732Z,0
2018-07-21T00:52:50.267Z,0
2018-07-21T00:53:30.395Z,0
2018-07-21T00:54:10.749Z,0
2018-07-21T00:54:51.181Z,0
2018-07-21T00:55:31.571Z,0
2018-07-21T00:56:12.033Z,0
2018-07-21T00:56:53.249Z,0
2018-07-21T00:57:33.923Z,0
2018-07-21T00:58:14.285Z,0
2018-07-21T00:58:54.601Z,0
2018-07-21T00:59:34.987Z,0
2018-07-21T01:00:15.377Z,0
2018-07-21T01:00:55.869Z,0
2018-07-21T01:01:36.304Z,0
2018-07-21T01:02:16.773Z,0
2018-07-21T01:02:57.138Z,0
2018-07-21T01:03:37.574Z,0
2018-07-21T01:04:17.938Z,0
2018-07-21T01:04:58.359Z,0
2018-07-21T01:05:38.779Z,0
2018-07-21T01:06:19.229Z,0
2018-07-21T01:06:59.760Z,0
2018-07-21T01:07:40.147Z,0
2018-07-21T01:10:12.920Z,0
2018-07-21T01:10:53.319Z,0
2018-07-21T01:14:43.428Z,0
2018-07-21T01:17:11.129Z,0
2018-07-21T01:17:51.597Z,0
2018-07-21T01:18:31.946Z,0
2018-07-21T01:19:12.348Z,0
2018-07-21T01:19:52.753Z,0
2018-07-21T01:20:33.205Z,0
2018-07-21T01:21:13.582Z,0
2018-07-21T01:21:53.960Z,0
2018-07-21T01:22:34.491Z,0
2018-07-21T01:23:14.836Z,0
2018-07-21T01:23:55.290Z,0
2018-07-21T01:24:35.728Z,0
2018-07-21T01:25:16.104Z,0
2018-07-21T01:25:56.512Z,0
2018-07-21T01:26:36.929Z,0
2018-07-21T01:29:05.794Z,0
2018-07-21T01:29:46.185Z,0
2018-07-21T01:30:26.889Z,0
2018-07-21T01:31:07.112Z,0
2018-07-21T01:31:47.504Z,0
2018-07-21T01:32:28.000Z,0
2018-07-21T01:33:08.359Z,0
2018-07-21T01:33:48.787Z,0
2018-07-21T01:37:47.755Z,0
2018-07-21T01:39:45.825Z,0
2018-07-21T01:40:26.055Z,0
2018-07-21T01:41:06.445Z,0
2018-07-21T01:43:22.841Z,0
2018-07-21T01:44:03.147Z,0
2018-07-21T01:44:43.512Z,0
2018-07-21T01:45:23.898Z,0
2018-07-21T01:46:04.333Z,0
2018-07-21T01:46:44.786Z,0
2018-07-21T01:47:25.149Z,0
2018-07-21T01:48:05.592Z,0
2018-07-21T01:48:45.970Z,0
2018-07-21T01:49:26.383Z,0
2018-07-21T01:50:06.798Z,0
2018-07-21T01:50:47.174Z,0
2018-07-21T01:51:27.635Z,0
2018-07-21T01:52:08.047Z,0
2018-07-21T01:52:48.516Z,0
2018-07-21T01:53:28.880Z,0
2018-07-21T01:54:09.272Z,0
2018-07-21T01:54:49.697Z,0
2018-07-21T01:55:30.106Z,0
2018-07-21T01:56:10.468Z,0
2018-07-21T01:56:50.890Z,0
2018-07-21T01:57:31.325Z,0
2018-07-21T01:58:11.709Z,0
2018-07-21T01:58:52.175Z,0
2018-07-21T01:59:32.545Z,0
2018-07-21T02:00:13.005Z,0
2018-07-21T02:00:53.371Z,0
2018-07-21T02:01:33.767Z,0
2018-07-21T02:02:14.254Z,0
2018-07-21T02:02:54.545Z,0
2018-07-21T02:03:34.976Z,0
2018-07-21T02:04:15.378Z,0
2018-07-21T02:04:55.799Z,0
2018-07-21T02:05:36.337Z,0
2018-07-21T02:06:16.710Z,0
2018-07-21T02:06:57.188Z,0
2018-07-21T02:07:37.586Z,0
2018-07-21T02:08:17.982Z,0
2018-07-21T02:08:58.459Z,0
2018-07-21T02:09:38.816Z,0
2018-07-21T02:10:19.237Z,0
2018-07-21T02:10:59.737Z,0
2018-07-21T02:11:40.125Z,0
2018-07-21T02:12:20.549Z,0
2018-07-21T02:13:01.006Z,0
2018-07-21T02:13:41.453Z,0
2018-07-21T02:14:21.833Z,0
2018-07-21T02:15:02.265Z,0
2018-07-21T02:15:42.671Z,0
2018-07-21T02:18:00.454Z,0
2018-07-21T02:18:40.884Z,0
2018-07-21T02:19:21.287Z,0
2018-07-21T02:20:01.655Z,0
2018-07-21T02:20:42.178Z,0
2018-07-21T02:21:22.596Z,0
2018-07-21T02:22:02.985Z,0
2018-07-21T02:24:17.800Z,0
2018-07-21T02:24:58.217Z,0
2018-07-21T02:25:38.583Z,0
2018-07-21T02:26:18.945Z,0
2018-07-21T02:26:59.398Z,0
2018-07-21T02:27:39.738Z,0
2018-07-21T02:28:20.176Z,0
2018-07-21T02:29:00.528Z,0
2018-07-21T02:29:40.939Z,0
2018-07-21T02:30:21.328Z,0
2018-07-21T02:31:01.742Z,0
2018-07-21T02:31:42.188Z,0
2018-07-21T02:32:22.561Z,0
2018-07-21T02:33:02.985Z,0
2018-07-21T02:33:43.328Z,0
2018-07-21T02:34:23.733Z,0
2018-07-21T02:35:04.185Z,0
2018-07-21T02:35:44.511Z,0
2018-07-21T02:36:24.965Z,0
2018-07-21T02:37:05.456Z,0
2018-07-21T02:37:45.864Z,0
2018-07-21T02:38:26.247Z,0
2018-07-21T02:39:06.698Z,0
2018-07-21T02:39:47.092Z,0
2018-07-21T02:40:27.529Z,0
2018-07-21T02:41:07.947Z,0
2018-07-21T02:41:48.287Z,0
2018-07-21T02:42:28.740Z,0
2018-07-21T02:43:09.115Z,0
2018-07-21T02:43:49.563Z,0
2018-07-21T02:44:29.973Z,0
2018-07-21T02:45:10.333Z,0
2018-07-21T02:45:50.795Z,0
2018-07-21T02:46:31.204Z,0
2018-07-21T02:47:11.615Z,0
2018-07-21T02:47:52.106Z,0
2018-07-21T02:48:32.553Z,0
2018-07-21T02:49:12.933Z,0
2018-07-21T02:51:47.004Z,0
2018-07-21T02:52:27.484Z,0
2018-07-21T02:53:07.821Z,0
2018-07-21T02:53:48.327Z,0
2018-07-21T02:54:28.758Z,0
2018-07-21T02:55:09.116Z,0
2018-07-21T02:55:49.480Z,0
2018-07-21T02:56:29.929Z,0
2018-07-21T02:57:10.268Z,0
2018-07-21T02:57:50.667Z,0
2018-07-21T02:58:31.104Z,0
2018-07-21T02:59:11.513Z,0
2018-07-21T02:59:51.930Z,0
2018-07-21T03:00:32.288Z,0
2018-07-21T03:01:12.742Z,0
2018-07-21T03:01:53.056Z,0
2018-07-21T03:02:33.544Z,0
2018-07-21T03:03:13.894Z,0
2018-07-21T03:03:54.307Z,0
2018-07-21T03:04:34.770Z,0
2018-07-21T03:05:15.201Z,0
2018-07-21T03:05:55.644Z,0
2018-07-21T03:06:35.966Z,0
2018-07-21T03:07:16.476Z,0
2018-07-21T03:07:56.811Z,0
2018-07-21T03:08:37.250Z,0
2018-07-21T03:09:17.660Z,0
2018-07-21T03:09:58.128Z,0
2018-07-21T03:10:38.520Z,0
2018-07-21T03:11:19.001Z,0
2018-07-21T03:11:59.397Z,0
2018-07-21T03:12:39.832Z,0
2018-07-21T03:13:20.217Z,0
2018-07-21T03:14:00.732Z,0
2018-07-21T03:14:41.067Z,0
2018-07-21T03:15:21.517Z,0
2018-07-21T03:16:01.954Z,0
2018-07-21T03:16:42.420Z,0
2018-07-21T03:17:22.791Z,4
2018-07-21T03:18:03.265Z,4
2018-07-21T03:18:43.693Z,4
2018-07-21T03:19:24.011Z,4
2018-07-21T03:20:04.449Z,0
2018-07-21T03:20:44.874Z,0
2018-07-21T03:21:25.244Z,4
2018-07-21T03:22:05.603Z,4
2018-07-21T03:22:46.027Z,4
2018-07-21T03:23:26.469Z,4
2018-07-21T03:24:06.894Z,4
2018-07-21T03:24:47.383Z,4
2018-07-21T03:25:27.708Z,4
2018-07-21T03:26:08.165Z,4
2018-07-21T03:26:48.601Z,4
2018-07-21T03:27:28.984Z,8
2018-07-21T03:28:09.359Z,4
2018-07-21T03:28:49.794Z,8
2018-07-21T03:29:30.333Z,8
2018-07-21T03:30:10.766Z,8
2018-07-21T03:30:51.187Z,8
2018-07-21T03:31:31.537Z,8
2018-07-21T03:32:11.942Z,12
2018-07-21T03:32:52.437Z,8
2018-07-21T03:33:32.776Z,12
2018-07-21T03:34:13.199Z,16
2018-07-21T03:34:53.635Z,12
2018-07-21T03:35:34.000Z,16
2018-07-21T03:36:14.337Z,16
2018-07-21T03:36:54.752Z,20
2018-07-21T03:37:35.258Z,16
2018-07-21T03:38:15.652Z,20
2018-07-21T03:38:56.003Z,20
2018-07-21T03:39:36.478Z,24
2018-07-21T03:40:16.862Z,24
2018-07-21T03:40:57.240Z,28
2018-07-21T03:41:37.629Z,28
2018-07-21T03:42:18.022Z,28
2018-07-21T03:42:58.415Z,32
2018-07-21T03:43:38.936Z,32
2018-07-21T03:44:19.296Z,36
2018-07-21T03:44:59.774Z,36
2018-07-21T03:45:40.202Z,36
2018-07-21T03:46:20.598Z,40
2018-07-21T03:47:01.045Z,44
2018-07-21T03:47:41.434Z,44
2018-07-21T03:48:21.839Z,48
2018-07-21T03:49:02.181Z,48
2018-07-21T03:49:42.585Z,52
2018-07-21T03:50:23.059Z,56
2018-07-21T03:51:03.404Z,56
2018-07-21T03:51:43.863Z,56
2018-07-21T03:52:24.276Z,60
2018-07-21T03:53:04.752Z,64
2018-07-21T03:53:45.059Z,64
2018-07-21T03:54:25.908Z,68
2018-07-21T03:55:07.329Z,72
2018-07-21T03:55:54.910Z,72
2018-07-21T03:56:35.336Z,76
2018-07-21T03:57:18.410Z,80
2018-07-21T03:57:58.699Z,80
2018-07-21T03:58:39.068Z,84
2018-07-21T03:59:19.489Z,88
2018-07-21T03:59:59.902Z,92
2018-07-21T04:00:40.473Z,96
2018-07-21T04:01:20.816Z,96
2018-07-21T04:02:01.344Z,100
2018-07-21T04:02:41.685Z,100
2018-07-21T04:03:21.988Z,104
2018-07-21T04:04:02.378Z,108
2018-07-21T04:45:15.120Z,212
2018-07-21T04:45:55.134Z,212
2018-07-21T04:46:35.538Z,208
2018-07-21T04:47:15.964Z,200
2018-07-21T04:47:56.429Z,196
2018-07-21T04:48:36.891Z,188
2018-07-21T04:49:17.847Z,184
2018-07-21T04:49:58.480Z,172
2018-07-21T04:50:38.992Z,164
2018-07-21T04:51:19.411Z,156
2018-07-21T04:51:59.797Z,148
2018-07-21T04:52:40.265Z,144
2018-07-21T04:53:20.707Z,144
2018-07-21T04:54:01.189Z,144
2018-07-21T04:54:41.482Z,140
2018-07-21T04:55:21.869Z,140
2018-07-21T04:56:02.291Z,144
2018-07-21T04:56:42.695Z,148
2018-07-21T04:57:23.118Z,152
2018-07-21T04:59:51.116Z,168
2018-07-21T05:00:31.397Z,168
2018-07-21T05:01:11.912Z,168
2018-07-21T05:01:52.326Z,176
2018-07-21T05:02:32.775Z,184
2018-07-21T05:20:56.284Z,2144
2018-07-21T05:21:36.644Z,2400
2018-07-21T05:22:17.087Z,4564
2018-07-21T05:22:57.694Z,4428
2018-07-21T05:23:37.950Z,4556
2018-07-21T05:24:18.418Z,7328
2018-07-21T05:24:58.943Z,8292
2018-07-21T05:25:39.369Z,8804
2018-07-21T05:26:19.675Z,8720
2018-07-21T05:27:00.088Z,8628
2018-07-21T05:27:40.568Z,9204
2018-07-21T05:28:21.044Z,9232
2018-07-21T05:29:01.392Z,9260
2018-07-21T05:29:41.890Z,9232
2018-07-21T05:30:22.354Z,9476
2018-07-21T05:31:02.877Z,9212
2018-07-21T05:31:43.258Z,9208
2018-07-21T05:32:23.655Z,8952
2018-07-21T05:33:04.125Z,9392
2018-07-21T05:33:44.681Z,9012
2018-07-21T05:34:25.102Z,5464
2018-07-21T05:35:05.491Z,3880
2018-07-21T05:35:45.841Z,3572
2018-07-21T05:36:26.321Z,3524
2018-07-21T05:37:06.741Z,3640
2018-07-21T05:37:47.111Z,5960
2018-07-21T05:38:27.538Z,4620
2018-07-21T05:39:07.922Z,8616
2018-07-21T05:39:48.360Z,6912
2018-07-21T05:40:28.740Z,4516
2018-07-21T05:41:09.229Z,4288
2018-07-21T05:41:49.583Z,4508
2018-07-21T05:42:30.089Z,6176
2018-07-21T05:43:10.432Z,4324
2018-07-21T05:43:50.824Z,4756
2018-07-21T05:44:31.359Z,5284
2018-07-21T05:45:11.871Z,4228
2018-07-21T05:45:52.182Z,8852
2018-07-21T05:46:32.662Z,4652
2018-07-21T05:47:13.045Z,6376
2018-07-21T05:47:53.459Z,10572
2018-07-21T05:48:33.891Z,10452
2018-07-21T05:49:14.224Z,8112
2018-07-21T05:49:54.643Z,5880
2018-07-21T05:50:35.146Z,6508
2018-07-21T05:51:15.520Z,6268
2018-07-21T05:51:55.823Z,5676
2018-07-21T05:52:36.346Z,8748
2018-07-21T05:53:16.735Z,7396
2018-07-21T05:53:57.150Z,7916
2018-07-21T05:54:37.582Z,8112
2018-07-21T05:55:17.960Z,5280
2018-07-21T05:55:58.395Z,5564
2018-07-21T05:56:38.817Z,4880
2018-07-21T05:57:19.233Z,5172
2018-07-21T05:57:59.694Z,4960
2018-07-21T05:58:40.121Z,4996
2018-07-21T05:59:20.493Z,5100
2018-07-21T06:00:00.851Z,3900
2018-07-21T06:00:41.247Z,3320
2018-07-21T06:01:21.680Z,3348
2018-07-21T06:02:02.090Z,3300
2018-07-21T06:04:13.957Z,2528
2018-07-21T06:06:29.605Z,1796
2018-07-21T06:07:09.224Z,1600
2018-07-21T06:07:49.655Z,1416
2018-07-21T06:08:30.038Z,1384
2018-07-21T06:11:10.828Z,1944
2018-07-21T06:11:49.564Z,1888
2018-07-21T06:12:30.084Z,1904
2018-07-21T06:13:10.505Z,2292
2018-07-21T06:13:51.000Z,2832
2018-07-21T06:14:32.421Z,3324
2018-07-21T06:15:12.801Z,7308
2018-07-21T06:15:55.753Z,4196
2018-07-21T06:17:54.812Z,5168
2018-07-21T06:18:35.191Z,5884
2018-07-21T06:19:15.638Z,7796
2018-07-21T06:19:55.974Z,7420
2018-07-21T06:20:36.409Z,6180
2018-07-21T06:21:16.815Z,4640
2018-07-21T06:21:57.243Z,4568
2018-07-21T06:22:37.584Z,5284
2018-07-21T06:23:18.038Z,5324
2018-07-21T06:23:58.519Z,4624
2018-07-21T06:24:38.847Z,4392
2018-07-21T06:25:19.305Z,4196
2018-07-21T06:25:59.729Z,4180
2018-07-21T06:26:40.079Z,4256
2018-07-21T06:27:20.505Z,4300
2018-07-21T06:28:00.964Z,4712
2018-07-21T06:28:41.352Z,5364
2018-07-21T06:29:21.776Z,6112
2018-07-21T06:31:39.395Z,4744
2018-07-21T06:32:19.782Z,5068
2018-07-21T06:33:00.207Z,5736
2018-07-21T06:33:41.264Z,4184
2018-07-21T06:37:00.639Z,3520
2018-07-21T06:37:41.077Z,4328
2018-07-21T06:38:21.496Z,4752
2018-07-21T06:39:01.879Z,5036
2018-07-21T06:39:42.313Z,5340
2018-07-21T06:40:22.747Z,5348
2018-07-21T06:41:03.160Z,4824
2018-07-21T06:41:43.688Z,4172
2018-07-21T06:42:24.140Z,3780
2018-07-21T06:43:04.531Z,3768
2018-07-21T06:43:44.964Z,3940
2018-07-21T06:44:25.372Z,4264
2018-07-21T06:45:05.753Z,5460
2018-07-21T06:45:46.169Z,7716
2018-07-21T06:46:26.606Z,11664
2018-07-21T06:47:06.988Z,11484
2018-07-21T06:47:47.436Z,9956
2018-07-21T06:48:27.850Z,8780
2018-07-21T06:50:45.462Z,6884
2018-07-21T06:53:15.353Z,11948
2018-07-21T06:53:55.577Z,12776
2018-07-21T06:54:36.062Z,10500
2018-07-21T06:55:16.403Z,7124
2018-07-21T06:57:13.906Z,4884
2018-07-21T06:57:54.252Z,3940
2018-07-21T06:58:34.699Z,3508
2018-07-21T06:59:15.115Z,3292
2018-07-21T06:59:55.501Z,3332
2018-07-21T07:00:35.924Z,3368
2018-07-21T07:01:16.320Z,3232
2018-07-21T07:01:56.782Z,3556
2018-07-21T07:02:37.184Z,4008
2018-07-21T07:03:17.674Z,4344
2018-07-21T07:03:58.016Z,7720
2018-07-21T07:04:38.487Z,8856
2018-07-21T07:05:18.906Z,5060
2018-07-21T07:05:59.280Z,4812
2018-07-21T07:06:39.724Z,4136
2018-07-21T07:07:20.074Z,3792
2018-07-21T07:08:00.496Z,4112
2018-07-21T07:08:40.927Z,7612
2018-07-21T07:09:21.385Z,8080
2018-07-21T07:10:01.882Z,11136
2018-07-21T07:10:42.185Z,13200
2018-07-21T07:11:22.656Z,18816
2018-07-21T07:12:03.034Z,14784
2018-07-21T07:12:43.539Z,17184
2018-07-21T07:13:23.906Z,24032
2018-07-21T07:14:04.332Z,35424
2018-07-21T07:14:44.767Z,36448
2018-07-21T07:15:25.158Z,12336
2018-07-21T07:16:05.565Z,13820
2018-07-21T07:16:46.038Z,11048
2018-07-21T07:17:26.444Z,8668
2018-07-21T07:18:06.876Z,4156
2018-07-21T07:18:47.346Z,4308
2018-07-21T07:19:27.745Z,4736
2018-07-21T07:20:08.211Z,4036
2018-07-21T07:20:48.621Z,3236
2018-07-21T07:21:29.013Z,2856
2018-07-21T07:22:09.449Z,2616
2018-07-21T07:22:49.830Z,2584
2018-07-21T07:23:30.369Z,2740
2018-07-21T07:24:10.775Z,3528
2018-07-21T07:24:51.210Z,4056
2018-07-21T07:25:31.613Z,8184
2018-07-21T07:26:11.966Z,8524
2018-07-21T07:26:52.565Z,10856
2018-07-21T07:27:32.909Z,14380
2018-07-21T07:28:13.376Z,14524
2018-07-21T07:28:53.749Z,16704
2018-07-21T07:29:34.116Z,16960
2018-07-21T07:30:14.521Z,17120
2018-07-21T07:30:54.958Z,17120
2018-07-21T07:31:35.399Z,17024
2018-07-21T07:32:15.813Z,17248
2018-07-21T07:34:51.721Z,7612
2018-07-21T07:35:32.150Z,5644
2018-07-21T07:36:13.657Z,6396
2018-07-21T07:36:54.010Z,7564
2018-07-21T07:39:25.355Z,7400
2018-07-21T07:40:05.868Z,7428
2018-07-21T07:40:46.314Z,7624
2018-07-21T07:41:26.782Z,7704
2018-07-21T07:42:07.914Z,7724
2018-07-21T07:42:49.094Z,7652
2018-07-21T07:43:29.472Z,7512
2018-07-21T07:44:10.018Z,7416
2018-07-21T07:44:50.378Z,7316
2018-07-21T07:45:30.760Z,7212
2018-07-21T07:46:11.210Z,7104
2018-07-21T07:47:34.200Z,6904
2018-07-21T07:48:14.639Z,6832
2018-07-21T07:48:55.065Z,6756
2018-07-21T07:49:35.505Z,6696
2018-07-21T07:53:20.415Z,6468
2018-07-21T07:54:00.768Z,6432
2018-07-21T07:54:41.947Z,6396
2018-07-21T07:55:22.448Z,6352
2018-07-21T08:01:20.402Z,5996
2018-07-21T08:06:35.087Z,5668
2018-07-21T08:07:15.893Z,5628
2018-07-21T08:12:01.554Z,5272
2018-07-21T08:12:41.979Z,5232
2018-07-21T08:13:22.453Z,5188
2018-07-21T08:14:02.954Z,5148
2018-07-21T08:14:44.118Z,5112
2018-07-21T08:15:24.623Z,5076
2018-07-21T08:16:06.431Z,5032
2018-07-21T08:18:42.079Z,4904
2018-07-21T08:19:23.399Z,4848
2018-07-21T08:20:04.228Z,4836
2018-07-21T08:20:48.568Z,4796
2018-07-21T08:21:27.006Z,4752
2018-07-21T08:22:08.244Z,4712
2018-07-21T08:22:50.274Z,4708
2018-07-21T08:23:30.274Z,4708
2018-07-21T08:24:11.755Z,4716
2018-07-21T08:24:52.215Z,4728
2018-07-21T08:25:32.649Z,4724
2018-07-21T08:26:13.136Z,4716
2018-07-21T08:26:53.511Z,4672
2018-07-21T08:27:37.609Z,4636
2018-07-21T08:28:17.836Z,4604
2018-07-21T08:28:58.486Z,4560
2018-07-21T08:29:40.930Z,4536
2018-07-21T08:30:21.356Z,4512
2018-07-21T08:32:04.413Z,4448
2018-07-21T08:36:00.661Z,4356
2018-07-21T08:36:40.892Z,4332
2018-07-21T08:37:21.342Z,4340
2018-07-21T08:38:01.823Z,4400
2018-07-21T08:38:43.728Z,4456
2018-07-21T08:39:25.517Z,4460
2018-07-21T08:40:05.975Z,4432
2018-07-21T08:40:46.428Z,4388
2018-07-21T08:41:27.017Z,4332
2018-07-21T08:42:07.423Z,4276
2018-07-21T08:42:47.822Z,4240
2018-07-21T08:43:28.411Z,4204
2018-07-21T08:44:08.696Z,4180
2018-07-21T08:44:49.203Z,4168
2018-07-21T08:45:29.556Z,4152
2018-07-21T08:46:09.980Z,4136
2018-07-21T08:46:50.422Z,4124
2018-07-21T08:47:30.895Z,4112
2018-07-21T08:48:11.357Z,4096
2018-07-21T08:48:51.785Z,4084
2018-07-21T08:49:32.247Z,4072
2018-07-21T08:53:24.822Z,3984
2018-07-21T08:54:05.390Z,3968
2018-07-21T08:54:45.837Z,3952
2018-07-21T08:55:26.251Z,3928
2018-07-21T08:56:07.518Z,3912
2018-07-21T08:56:47.874Z,3888
2018-07-21T08:57:35.566Z,3868
2018-07-21T08:58:16.876Z,3844
2018-07-21T08:58:57.346Z,3824
2018-07-21T08:59:37.929Z,3808
2018-07-21T09:00:18.390Z,3788
2018-07-21T09:00:59.570Z,3768
2018-07-21T09:06:17.276Z,3628
2018-07-21T09:06:57.642Z,3608
2018-07-21T09:07:38.092Z,3592
2018-07-21T09:08:19.039Z,3576
2018-07-21T09:08:59.303Z,3568
2018-07-21T09:09:39.982Z,3552
2018-07-21T09:10:21.211Z,3540
2018-07-21T09:11:04.442Z,3536
2018-07-21T09:11:45.822Z,3524
2018-07-21T09:12:25.502Z,3516
2018-07-21T09:13:06.229Z,3508
2018-07-21T09:13:46.644Z,3492
2018-07-21T09:14:29.837Z,3480
2018-07-21T09:15:10.187Z,3464
2018-07-21T09:15:50.562Z,3452
2018-07-21T09:16:31.973Z,3436
2018-07-21T09:17:12.742Z,3424
2018-07-21T09:17:53.366Z,3412
2018-07-21T09:18:33.914Z,3408
2018-07-21T09:19:14.242Z,3400
2018-07-21T09:19:56.211Z,3392
2018-07-21T09:20:36.670Z,3384
2018-07-21T09:21:17.351Z,3376
2018-07-21T09:21:57.938Z,3372
2018-07-21T09:22:38.392Z,3364
2018-07-21T09:23:18.812Z,3360
2018-07-21T09:23:59.221Z,3348
2018-07-21T09:24:41.245Z,3340
2018-07-21T09:25:24.044Z,3324
2018-07-21T09:26:04.403Z,3312
2018-07-21T09:26:45.209Z,3304
2018-07-21T09:27:25.634Z,3292
2018-07-21T09:28:06.109Z,3280
2018-07-21T09:28:46.526Z,3272
2018-07-21T09:29:27.040Z,3268
2018-07-21T09:30:07.551Z,3264
2018-07-21T09:30:50.191Z,3256
2018-07-21T09:31:30.733Z,3248
2018-07-21T09:32:11.174Z,3236
2018-07-21T09:32:51.614Z,3232
2018-07-21T09:33:34.801Z,3224
2018-07-21T09:34:15.564Z,3208
2018-07-21T09:34:56.399Z,3192
2018-07-21T09:35:37.383Z,3184
2018-07-21T09:36:17.132Z,3172
2018-07-21T09:36:57.704Z,3152
2018-07-21T09:37:38.562Z,3144
2018-07-21T09:38:19.508Z,3140
2018-07-21T09:39:00.215Z,3128
2018-07-21T09:39:40.446Z,3124
2018-07-21T09:40:21.165Z,3112
2018-07-21T09:45:42.255Z,2992
2018-07-21T09:46:22.892Z,2976
2018-07-21T09:47:03.580Z,2956
2018-07-21T09:47:46.125Z,2936
2018-07-21T09:48:26.549Z,2920
2018-07-21T09:49:07.221Z,2908
2018-07-21T09:49:48.540Z,2892
2018-07-21T09:50:34.834Z,2872
2018-07-21T09:51:16.584Z,2852
2018-07-21T09:52:07.303Z,2828
2018-07-21T09:52:47.806Z,2816
2018-07-21T09:53:28.264Z,2804
2018-07-21T09:54:08.914Z,2792
2018-07-21T09:54:50.050Z,2780
2018-07-21T09:55:30.128Z,2768
2018-07-21T09:56:10.597Z,2764
2018-07-21T09:56:52.563Z,2752
2018-07-21T09:57:33.789Z,2748
2018-07-21T09:58:14.320Z,2740
2018-07-21T09:58:57.554Z,2732
2018-07-21T09:59:39.853Z,2720
2018-07-21T10:00:21.823Z,2708
2018-07-21T10:01:01.609Z,2696
2018-07-21T10:01:45.672Z,2684
2018-07-21T10:02:26.188Z,2676
2018-07-21T10:03:17.639Z,2664
2018-07-21T10:03:58.107Z,2656
2018-07-21T10:04:38.619Z,2652
2018-07-21T10:05:19.329Z,2644
2018-07-21T10:51:03.872Z,2420
2018-07-21T10:51:44.349Z,2420
2018-07-21T10:52:27.403Z,2412
2018-07-21T10:53:08.256Z,2400
2018-07-21T10:53:48.736Z,2408
2018-07-21T10:54:29.194Z,2416
2018-07-21T10:55:09.644Z,2416
2018-07-21T10:55:50.163Z,2412
2018-07-21T10:56:31.434Z,2404
2018-07-21T10:57:12.693Z,2396
2018-07-21T10:57:52.666Z,2388
2018-07-21T10:58:33.129Z,2376
2018-07-21T10:59:24.002Z,2368
2018-07-21T11:00:21.943Z,2360
2018-07-21T11:01:03.571Z,2360
2018-07-21T11:01:47.177Z,2352
2018-07-21T11:04:06.586Z,2316
2018-07-21T11:04:46.995Z,2312
2018-07-21T11:05:27.378Z,2304
2018-07-21T11:06:07.823Z,2300
2018-07-21T11:06:48.285Z,2300
2018-07-21T11:07:28.732Z,2296
2018-07-21T11:08:09.181Z,2280
2018-07-21T11:08:49.617Z,2260
2018-07-21T11:09:30.016Z,2248
2018-07-21T11:10:10.414Z,2236
2018-07-21T11:10:50.882Z,2224
2018-07-21T11:11:31.315Z,2212
2018-07-21T11:12:11.721Z,2204
2018-07-21T11:12:52.125Z,2196
2018-07-21T11:13:32.560Z,2184
2018-07-21T11:14:12.943Z,2180
2018-07-21T11:14:53.372Z,2164
2018-07-21T11:15:33.859Z,2168
2018-07-21T11:16:14.229Z,2172
2018-07-21T11:16:54.687Z,2184
2018-07-21T11:17:35.028Z,2188
2018-07-21T11:18:15.464Z,2188
2018-07-21T11:18:55.920Z,2176
2018-07-21T11:19:36.312Z,2160
2018-07-21T11:20:16.731Z,2148
2018-07-21T11:20:57.154Z,2148
2018-07-21T11:21:37.546Z,2140
2018-07-21T11:22:17.920Z,2140
2018-07-21T11:22:58.366Z,2132
2018-07-21T11:23:38.754Z,2124
2018-07-21T11:24:19.525Z,2116
2018-07-21T11:24:59.896Z,2108
2018-07-21T11:25:40.281Z,2104
2018-07-21T11:26:20.717Z,2100
2018-07-21T11:27:01.126Z,2100
2018-07-21T11:27:41.599Z,2100
2018-07-21T11:28:22.004Z,2112
2018-07-21T11:29:02.388Z,2128
2018-07-21T11:29:42.833Z,2152
2018-07-21T11:30:23.273Z,2164
2018-07-21T11:31:03.661Z,2164
2018-07-21T11:31:44.028Z,2160
2018-07-21T11:32:24.497Z,2156
2018-07-21T11:33:04.909Z,2152
2018-07-21T11:33:45.277Z,2140
2018-07-21T11:34:25.623Z,2128
2018-07-21T11:35:06.090Z,2128
2018-07-21T11:35:46.691Z,2128
2018-07-21T11:36:26.946Z,2112
2018-07-21T11:37:07.309Z,2096
2018-07-21T11:37:47.790Z,2100
2018-07-21T11:38:28.139Z,2088
2018-07-21T11:39:08.599Z,2080
2018-07-21T11:39:48.942Z,2100
2018-07-21T11:40:29.387Z,2112
2018-07-21T11:41:09.741Z,2124
2018-07-21T11:41:50.218Z,2140
2018-07-21T11:42:30.575Z,2160
2018-07-21T11:43:11.061Z,2168
2018-07-21T11:43:51.398Z,2184
2018-07-21T11:44:31.929Z,2184
2018-07-21T11:45:12.275Z,2172
2018-07-21T11:45:52.661Z,2168
2018-07-21T11:46:33.096Z,2164
2018-07-21T11:47:13.513Z,2160
2018-07-21T11:47:53.963Z,2148
2018-07-21T11:48:34.414Z,2132
2018-07-21T11:49:14.848Z,2128
2018-07-21T11:49:55.233Z,2076
2018-07-21T11:50:35.700Z,2048
2018-07-21T11:51:16.140Z,1948
2018-07-21T11:51:56.511Z,1720
2018-07-21T11:52:36.911Z,1936
2018-07-21T11:53:17.441Z,1720
2018-07-21T11:53:57.798Z,1808
2018-07-21T11:54:38.236Z,1904
2018-07-21T11:55:18.700Z,2172
2018-07-21T11:55:59.091Z,2176
2018-07-21T11:56:39.578Z,1932
2018-07-21T11:57:20.083Z,2180
2018-07-21T11:58:00.427Z,2024
2018-07-21T11:58:40.810Z,1896
2018-07-21T11:59:21.238Z,1996
2018-07-21T12:00:01.731Z,1984
2018-07-21T12:00:42.052Z,1972
2018-07-21T12:01:22.518Z,1896
2018-07-21T12:02:02.949Z,1916
2018-07-21T12:02:43.440Z,2208
2018-07-21T12:03:23.864Z,2248
2018-07-21T12:04:04.282Z,2244
2018-07-21T12:04:44.724Z,2256
2018-07-21T12:05:25.146Z,2284
2018-07-21T12:06:05.576Z,2260
2018-07-21T12:06:45.932Z,2256
2018-07-21T12:07:26.387Z,2228
2018-07-21T12:08:06.818Z,2128
2018-07-21T12:08:47.208Z,2208
2018-07-21T12:09:27.649Z,2044
2018-07-21T12:10:08.131Z,2108
2018-07-21T12:10:48.496Z,2072
2018-07-21T12:11:28.859Z,2116
2018-07-21T12:12:09.421Z,2040
2018-07-21T12:12:49.739Z,1968
2018-07-21T12:13:30.229Z,1864
2018-07-21T12:14:10.647Z,1840
2018-07-21T12:14:51.035Z,1840
2018-07-21T12:15:31.413Z,1884
2018-07-21T12:16:11.816Z,1948
2018-07-21T12:16:52.268Z,2032
2018-07-21T12:17:32.648Z,2128
2018-07-21T12:18:13.121Z,2152
2018-07-21T12:18:53.490Z,2248
2018-07-21T12:19:33.948Z,2312
2018-07-21T12:20:14.363Z,2300
2018-07-21T12:20:54.740Z,2380
2018-07-21T12:21:35.226Z,2488
2018-07-21T12:22:15.634Z,2488
2018-07-21T12:22:56.008Z,2504
2018-07-21T12:23:36.471Z,2508
2018-07-21T12:24:16.838Z,2464
2018-07-21T12:28:05.853Z,2480
2018-07-21T12:28:47.223Z,2496
2018-07-21T12:29:28.458Z,2492
2018-07-21T12:30:10.011Z,2484
2018-07-21T12:30:50.447Z,2496
2018-07-21T12:31:30.854Z,2528